Aviation Digital Data Service (ADDS)

Output produced by METARs form (1421 UTC 22 April 2019)
found at http://www.aviationweather.gov/metar/data/
 
Forecast for: LIPH (TREVISO(CIV/IT-A, IT)
Text: TAF LIPH 221100Z 2212/2312 11010KT 9999 SCT040
Forecast period: 1200 to 2100 UTC 22 April 2019
Forecast type: FROM: standard forecast or significant change
Winds: from the ESE (110 degrees) at 12 MPH (10 knots; 5.1 m/s)
Visibility: 6 or more miles 10+ km)
Ceiling: at least 12,000 feet AGL
Clouds: scattered clouds at 4000 feet AGL
Weather: no significant weather forecast for this period
Text: BECMG 2221/2223 04012KT 4000 RA
Forecast period: 2100 UTC 22 April 2019 to 1200 UTC 23 April 2019
Forecast type: BECOMING: Conditions expected to become as follows by 2300 UTC 22 April 2019
Winds: from the NE (40 degrees) at 14 MPH (12 knots; 6.2 m/s)
Visibility: 2.49 miles (4.01 km)
Ceiling: at least 12,000 feet AGL
Clouds: scattered clouds at 4000 feet AGL
Weather: RA  (moderate rain)